createdAt,value
2022-08-26T00:00:32.759Z,0.00
2022-08-26T00:01:32.737Z,0.00
2022-08-26T00:02:32.795Z,0.00
2022-08-26T00:03:32.714Z,0.00
2022-08-26T00:04:32.696Z,0.00
2022-08-26T00:05:32.686Z,0.00
2022-08-26T00:06:32.687Z,0.00
2022-08-26T00:07:32.670Z,0.00
2022-08-26T00:08:32.675Z,0.00
2022-08-26T00:09:32.646Z,0.00
2022-08-26T00:10:32.646Z,0.00
2022-08-26T00:11:32.626Z,0.00
2022-08-26T00:12:35.876Z,0.00
2022-08-26T00:13:32.633Z,0.00
2022-08-26T00:14:32.599Z,0.00
2022-08-26T00:16:47.801Z,0.00
2022-08-26T00:17:45.587Z,0.00
2022-08-26T00:18:45.568Z,0.00
2022-08-26T00:19:45.556Z,0.00
2022-08-26T00:20:45.550Z,0.00
2022-08-26T00:21:45.532Z,0.00
2022-08-26T00:22:45.564Z,0.00
2022-08-26T00:23:45.519Z,0.00
2022-08-26T00:24:47.816Z,0.00
2022-08-26T00:25:45.522Z,0.00
2022-08-26T00:26:45.522Z,0.00
2022-08-26T00:27:45.521Z,0.00
2022-08-26T00:28:45.526Z,0.00
2022-08-26T00:29:45.486Z,0.00
2022-08-26T00:30:45.442Z,0.00
2022-08-26T00:31:45.774Z,0.00
2022-08-26T00:32:46.377Z,0.00
2022-08-26T00:33:45.456Z,0.00
2022-08-26T00:34:45.401Z,0.00
2022-08-26T00:35:45.410Z,0.00
2022-08-26T00:36:45.394Z,0.00
2022-08-26T00:37:45.386Z,0.00
2022-08-26T00:38:45.389Z,0.00
2022-08-26T00:39:45.730Z,0.00
2022-08-26T00:40:45.339Z,0.00
2022-08-26T00:41:45.356Z,0.00
2022-08-26T00:42:45.871Z,0.00
2022-08-26T00:43:47.183Z,0.00
2022-08-26T00:44:45.299Z,0.00
2022-08-26T00:45:45.342Z,0.00
2022-08-26T00:46:46.947Z,0.00
2022-08-26T00:47:45.307Z,0.00
2022-08-26T00:48:45.276Z,0.00
2022-08-26T00:49:45.249Z,0.00
2022-08-26T00:50:45.236Z,0.00
2022-08-26T00:51:45.228Z,0.00
2022-08-26T00:52:45.228Z,0.00
2022-08-26T00:53:45.264Z,0.00
2022-08-26T00:54:45.217Z,0.00
2022-08-26T00:55:45.220Z,0.00
2022-08-26T00:56:45.209Z,0.00
2022-08-26T00:57:45.180Z,0.00
2022-08-26T00:58:45.178Z,0.00
2022-08-26T00:59:45.150Z,0.00
2022-08-26T01:00:45.359Z,0.00
2022-08-26T01:01:45.938Z,0.00
2022-08-26T01:02:46.898Z,0.00
2022-08-26T01:03:45.127Z,0.00
2022-08-26T01:04:45.081Z,0.00
2022-08-26T01:05:45.116Z,0.00
2022-08-26T01:06:45.095Z,0.00
2022-08-26T01:07:45.061Z,0.00
2022-08-26T01:08:45.083Z,0.00
2022-08-26T01:09:45.051Z,0.00
2022-08-26T01:10:45.246Z,0.00
2022-08-26T01:11:45.024Z,0.00
2022-08-26T01:12:45.023Z,0.00
2022-08-26T01:13:45.014Z,0.00
2022-08-26T01:14:46.549Z,0.00
2022-08-26T01:15:44.986Z,0.00
2022-08-26T01:16:44.995Z,0.00
2022-08-26T01:17:44.964Z,0.00
2022-08-26T01:18:44.966Z,0.00
2022-08-26T01:19:44.933Z,0.00
2022-08-26T01:20:44.938Z,0.00
2022-08-26T01:21:44.920Z,0.00
2022-08-26T01:22:44.925Z,0.00
2022-08-26T01:23:45.007Z,0.00
2022-08-26T01:24:44.926Z,0.00
2022-08-26T01:25:44.899Z,0.00
2022-08-26T01:26:44.883Z,0.00
2022-08-26T01:27:44.857Z,0.00
2022-08-26T01:28:44.875Z,0.00
2022-08-26T01:29:45.840Z,0.00
2022-08-26T01:30:44.840Z,0.00
2022-08-26T01:31:44.884Z,0.00
2022-08-26T01:32:44.802Z,0.00
2022-08-26T01:33:44.814Z,0.00
2022-08-26T01:34:44.782Z,0.00
2022-08-26T01:35:44.769Z,0.00
2022-08-26T01:36:49.220Z,0.00
2022-08-26T01:37:45.755Z,0.00
2022-08-26T01:38:44.780Z,0.00
2022-08-26T01:39:45.003Z,0.00
2022-08-26T01:40:44.748Z,0.00
2022-08-26T01:41:44.715Z,0.00
2022-08-26T01:42:44.703Z,0.00
2022-08-26T01:43:44.697Z,0.00
2022-08-26T01:44:44.684Z,0.00
2022-08-26T01:45:44.757Z,0.00
2022-08-26T01:46:44.657Z,0.00
2022-08-26T01:47:44.646Z,0.00
2022-08-26T01:48:44.643Z,0.00
2022-08-26T01:49:44.630Z,0.00
2022-08-26T01:50:44.629Z,0.00
2022-08-26T01:51:44.616Z,0.00
2022-08-26T01:52:44.586Z,0.00
2022-08-26T01:53:46.018Z,0.00
2022-08-26T01:54:46.368Z,0.00
2022-08-26T01:55:45.566Z,0.00
2022-08-26T01:56:44.573Z,0.00
2022-08-26T01:57:44.537Z,0.00
2022-08-26T01:58:44.549Z,0.00
2022-08-26T01:59:44.523Z,0.00
2022-08-26T02:00:44.563Z,0.00
2022-08-26T02:01:44.505Z,0.00
2022-08-26T02:02:44.502Z,0.00
2022-08-26T02:03:44.480Z,0.00
2022-08-26T02:04:44.534Z,0.00
2022-08-26T02:05:44.463Z,0.00
2022-08-26T02:06:44.472Z,0.00
2022-08-26T02:07:44.451Z,0.00
2022-08-26T02:08:44.444Z,0.00
2022-08-26T02:09:44.442Z,0.00
2022-08-26T02:10:44.423Z,0.00
2022-08-26T02:11:44.410Z,0.00
2022-08-26T02:12:44.385Z,0.00
2022-08-26T02:13:44.387Z,0.00
2022-08-26T02:14:44.525Z,0.00
2022-08-26T02:15:44.400Z,0.00
2022-08-26T02:16:44.429Z,0.00
2022-08-26T02:17:44.340Z,0.00
2022-08-26T02:18:44.320Z,0.00
2022-08-26T02:19:44.346Z,0.00
2022-08-26T02:20:44.305Z,0.00
2022-08-26T02:21:44.300Z,0.00
2022-08-26T02:22:45.221Z,0.00
2022-08-26T02:23:44.268Z,0.00
2022-08-26T02:24:44.270Z,0.00
2022-08-26T02:25:44.279Z,0.00
2022-08-26T02:26:44.238Z,0.00
2022-08-26T02:27:44.242Z,0.00
2022-08-26T02:28:44.263Z,0.00
2022-08-26T02:29:44.238Z,0.00
2022-08-26T02:30:44.200Z,0.00
2022-08-26T02:31:44.275Z,0.00
2022-08-26T02:32:44.206Z,0.00
2022-08-26T02:33:44.213Z,0.00
2022-08-26T02:34:44.152Z,0.00
2022-08-26T02:35:44.172Z,0.00
2022-08-26T02:36:44.134Z,0.00
2022-08-26T02:37:44.137Z,0.00
2022-08-26T02:38:44.112Z,0.00
2022-08-26T02:39:44.130Z,0.00
2022-08-26T02:40:44.114Z,0.00
2022-08-26T02:41:45.257Z,0.00
2022-08-26T02:42:44.068Z,0.00
2022-08-26T02:43:44.054Z,0.00
2022-08-26T02:44:44.111Z,0.00
2022-08-26T02:45:44.036Z,0.00
2022-08-26T02:46:47.244Z,0.00
2022-08-26T02:47:44.034Z,0.00
2022-08-26T02:48:44.029Z,0.00
2022-08-26T02:49:44.305Z,0.00
2022-08-26T02:50:43.986Z,0.00
2022-08-26T02:51:43.985Z,0.00
2022-08-26T02:52:43.966Z,0.00
2022-08-26T02:53:43.991Z,0.00
2022-08-26T02:54:43.963Z,0.00
2022-08-26T02:55:43.961Z,0.00
2022-08-26T02:56:43.921Z,0.00
2022-08-26T02:57:43.910Z,0.00
2022-08-26T02:58:43.922Z,0.00
2022-08-26T02:59:43.930Z,0.00
2022-08-26T03:00:53.050Z,0.00
2022-08-26T03:01:44.914Z,0.00
2022-08-26T03:02:43.852Z,0.00
2022-08-26T03:03:43.859Z,0.00
2022-08-26T03:04:57.762Z,0.00
2022-08-26T03:05:44.855Z,0.00
2022-08-26T03:06:43.822Z,0.00
2022-08-26T03:07:45.215Z,0.00
2022-08-26T03:08:43.802Z,0.00
2022-08-26T03:09:43.809Z,0.00
2022-08-26T03:10:43.773Z,0.00
2022-08-26T03:11:43.767Z,0.00
2022-08-26T03:12:43.763Z,0.00
2022-08-26T03:13:43.773Z,0.00
2022-08-26T03:14:43.754Z,0.00
2022-08-26T03:15:43.797Z,0.00
2022-08-26T03:16:43.724Z,0.00
2022-08-26T03:17:43.710Z,0.00
2022-08-26T03:18:43.699Z,0.00
2022-08-26T03:19:44.696Z,0.00
2022-08-26T03:20:43.962Z,0.00
2022-08-26T03:21:43.705Z,0.00
2022-08-26T03:22:43.596Z,1.00
2022-08-26T03:23:43.646Z,0.00
2022-08-26T03:24:46.183Z,0.00
2022-08-26T03:25:43.652Z,0.00
2022-08-26T03:26:52.183Z,0.00
2022-08-26T03:27:44.575Z,1.00
2022-08-26T03:28:43.561Z,1.00
2022-08-26T03:29:43.534Z,1.00
2022-08-26T03:30:45.099Z,1.00
2022-08-26T03:31:43.567Z,1.00
2022-08-26T03:32:43.513Z,2.00
2022-08-26T03:33:43.544Z,0.00
2022-08-26T03:34:43.483Z,2.00
2022-08-26T03:35:43.515Z,1.00
2022-08-26T03:36:43.459Z,1.00
2022-08-26T03:37:43.452Z,2.00
2022-08-26T03:38:43.429Z,1.00
2022-08-26T03:39:43.418Z,1.00
2022-08-26T03:40:43.433Z,4.00
2022-08-26T03:41:43.415Z,5.00
2022-08-26T03:42:45.287Z,4.00
2022-08-26T03:43:43.385Z,4.00
2022-08-26T03:44:43.389Z,3.00
2022-08-26T03:45:43.387Z,9.00
2022-08-26T03:46:43.961Z,10.00
2022-08-26T03:47:43.339Z,8.00
2022-08-26T03:48:43.337Z,15.00
2022-08-26T03:49:43.347Z,16.00
2022-08-26T03:50:43.308Z,19.00
2022-08-26T03:51:43.306Z,19.00
2022-08-26T03:52:44.174Z,25.00
2022-08-26T03:53:43.275Z,31.00
2022-08-26T03:54:43.510Z,32.00
2022-08-26T03:55:43.364Z,37.00
2022-08-26T03:56:43.249Z,48.00
2022-08-26T03:57:43.243Z,52.00
2022-08-26T03:58:43.219Z,61.00
2022-08-26T03:59:43.229Z,69.00
2022-08-26T04:00:43.227Z,79.00
2022-08-26T04:01:43.262Z,92.00
2022-08-26T04:02:43.228Z,104.00
2022-08-26T04:03:43.178Z,109.00
2022-08-26T04:04:43.171Z,119.00
2022-08-26T04:05:43.179Z,133.00
2022-08-26T04:06:43.179Z,146.00
2022-08-26T04:07:43.152Z,160.00
2022-08-26T04:08:43.195Z,172.00
2022-08-26T04:09:43.118Z,187.00
2022-08-26T04:10:43.113Z,200.00
2022-08-26T04:11:43.093Z,217.00
2022-08-26T04:12:43.103Z,234.00
2022-08-26T04:13:43.080Z,250.00
2022-08-26T04:14:43.053Z,267.00
2022-08-26T04:15:43.095Z,284.00
2022-08-26T04:16:43.050Z,301.00
2022-08-26T04:17:43.725Z,327.00
2022-08-26T04:18:46.831Z,346.00
2022-08-26T04:19:43.039Z,365.00
2022-08-26T04:20:43.016Z,385.00
2022-08-26T04:21:43.028Z,410.00
2022-08-26T04:22:42.976Z,432.00
2022-08-26T04:23:47.679Z,460.00
2022-08-26T04:24:44.004Z,486.00
2022-08-26T04:25:42.961Z,510.00
2022-08-26T04:26:43.771Z,534.00
2022-08-26T04:27:42.931Z,554.00
2022-08-26T04:28:42.927Z,558.00
2022-08-26T04:29:42.930Z,556.00
2022-08-26T04:30:42.970Z,557.00
2022-08-26T04:31:42.932Z,559.00
2022-08-26T04:32:42.897Z,568.00
2022-08-26T04:33:42.868Z,573.00
2022-08-26T04:34:42.856Z,585.00
2022-08-26T04:35:43.223Z,609.00
2022-08-26T04:36:42.831Z,643.00
2022-08-26T04:37:43.032Z,691.00
2022-08-26T04:38:42.814Z,737.00
2022-08-26T04:39:42.814Z,771.00
2022-08-26T04:40:42.811Z,792.00
2022-08-26T04:41:42.785Z,795.00
2022-08-26T04:42:42.773Z,797.00
2022-08-26T04:43:42.752Z,813.00
2022-08-26T04:44:42.745Z,836.00
2022-08-26T04:45:42.765Z,865.00
2022-08-26T04:46:43.671Z,883.00
2022-08-26T04:47:42.714Z,899.00
2022-08-26T04:48:42.712Z,913.00
2022-08-26T04:49:42.715Z,926.00
2022-08-26T04:50:42.985Z,951.00
2022-08-26T04:51:43.913Z,1005.00
2022-08-26T04:52:42.666Z,1086.00
2022-08-26T04:53:42.650Z,1167.00
2022-08-26T04:54:42.653Z,1263.00
2022-08-26T04:55:42.882Z,1338.00
2022-08-26T04:56:42.628Z,1407.00
2022-08-26T04:57:42.635Z,1477.00
2022-08-26T04:58:42.588Z,1542.00
2022-08-26T04:59:42.590Z,1622.00
2022-08-26T05:00:42.575Z,1684.00
2022-08-26T05:01:42.611Z,1791.00
2022-08-26T05:02:42.549Z,1904.00
2022-08-26T05:03:42.587Z,1997.00
2022-08-26T05:04:42.552Z,2064.00
2022-08-26T05:05:42.540Z,2151.00
2022-08-26T05:06:42.550Z,2208.00
2022-08-26T05:07:42.521Z,2246.00
2022-08-26T05:08:42.492Z,2290.00
2022-08-26T05:09:42.483Z,2355.00
2022-08-26T05:10:42.492Z,2129.00
2022-08-26T05:11:42.485Z,1408.00
2022-08-26T05:12:42.443Z,1952.00
2022-08-26T05:13:42.433Z,3177.00
2022-08-26T05:14:42.421Z,2373.00
2022-08-26T05:15:42.457Z,1525.00
2022-08-26T05:16:42.435Z,2690.00
2022-08-26T05:17:42.389Z,3666.00
2022-08-26T05:18:42.388Z,3001.00
2022-08-26T05:19:42.930Z,2923.00
2022-08-26T05:20:42.367Z,2894.00
2022-08-26T05:21:42.366Z,2960.00
2022-08-26T05:22:42.345Z,3241.00
2022-08-26T05:23:42.340Z,3190.00
2022-08-26T05:24:42.325Z,3022.00
2022-08-26T05:25:42.326Z,3131.00
2022-08-26T05:26:42.341Z,3489.00
2022-08-26T05:27:42.325Z,3427.00
2022-08-26T05:28:42.287Z,3254.00
2022-08-26T05:29:42.289Z,3954.00
2022-08-26T05:30:42.321Z,2781.00
2022-08-26T05:31:42.269Z,3333.00
2022-08-26T05:32:42.250Z,4217.00
2022-08-26T05:33:42.268Z,4429.00
2022-08-26T05:34:42.942Z,3591.00
2022-08-26T05:35:42.227Z,3635.00
2022-08-26T05:36:42.221Z,3577.00
2022-08-26T05:37:42.202Z,2895.00
2022-08-26T05:38:42.218Z,2807.00
2022-08-26T05:39:43.452Z,4180.00
2022-08-26T05:40:43.166Z,4188.00
2022-08-26T05:41:42.163Z,4005.00
2022-08-26T05:42:42.203Z,4677.00
2022-08-26T05:43:42.135Z,5009.00
2022-08-26T05:44:53.927Z,5063.00
2022-08-26T05:45:46.165Z,4841.00
2022-08-26T05:46:42.176Z,4553.00
2022-08-26T05:47:42.088Z,5135.00
2022-08-26T05:48:44.210Z,5741.00
2022-08-26T05:49:43.750Z,5618.00
2022-08-26T05:50:43.073Z,4973.00
2022-08-26T05:51:42.085Z,4475.00
2022-08-26T05:52:42.066Z,4858.00
2022-08-26T05:53:43.921Z,5183.00
2022-08-26T05:54:43.039Z,5191.00
2022-08-26T05:55:42.024Z,5296.00
2022-08-26T05:56:42.030Z,5340.00
2022-08-26T05:57:42.884Z,5276.00
2022-08-26T05:58:41.982Z,6027.00
2022-08-26T05:59:42.002Z,6054.00
2022-08-26T06:00:42.010Z,6015.00
2022-08-26T06:01:42.026Z,3159.00
2022-08-26T06:02:41.973Z,4420.00
2022-08-26T06:03:41.923Z,7817.00
2022-08-26T06:04:41.929Z,6887.00
2022-08-26T06:05:41.920Z,8420.00
2022-08-26T06:06:42.810Z,11387.00
2022-08-26T06:07:41.904Z,9516.00
2022-08-26T06:08:41.885Z,9136.00
2022-08-26T06:09:41.866Z,8825.00
2022-08-26T06:10:41.860Z,7498.00
2022-08-26T06:11:41.876Z,7184.00
2022-08-26T06:12:41.917Z,6500.00
2022-08-26T06:13:41.826Z,6004.00
2022-08-26T06:14:41.813Z,7584.00
2022-08-26T06:15:42.001Z,8161.00
2022-08-26T06:16:41.834Z,7484.00
2022-08-26T06:17:41.837Z,6601.00
2022-08-26T06:18:41.802Z,6015.00
2022-08-26T06:19:41.767Z,5964.00
2022-08-26T06:20:41.926Z,6000.00
2022-08-26T06:21:41.751Z,6158.00
2022-08-26T06:22:41.776Z,6552.00
2022-08-26T06:23:41.772Z,6845.00
2022-08-26T06:24:41.729Z,6724.00
2022-08-26T06:25:41.814Z,6449.00
2022-08-26T06:26:42.648Z,6463.00
2022-08-26T06:27:41.702Z,6257.00
2022-08-26T06:28:43.516Z,6113.00
2022-08-26T06:29:41.681Z,5781.00
2022-08-26T06:30:41.739Z,6211.00
2022-08-26T06:31:41.707Z,6189.00
2022-08-26T06:32:41.632Z,6081.00
2022-08-26T06:33:41.666Z,6056.00
2022-08-26T06:34:41.630Z,5917.00
2022-08-26T06:35:41.672Z,5773.00
2022-08-26T06:36:41.645Z,5711.00
2022-08-26T06:37:41.593Z,5766.00
2022-08-26T06:38:41.685Z,5671.00
2022-08-26T06:39:41.610Z,5625.00
2022-08-26T06:40:41.569Z,5904.00
2022-08-26T06:41:43.426Z,5476.00
2022-08-26T06:42:41.554Z,5432.00
2022-08-26T06:43:41.573Z,5621.00
2022-08-26T06:44:41.520Z,5425.00
2022-08-26T06:45:41.499Z,5496.00
2022-08-26T06:46:41.551Z,5672.00
2022-08-26T06:47:41.522Z,5629.00
2022-08-26T06:48:41.480Z,5583.00
2022-08-26T06:49:41.475Z,5629.00
2022-08-26T06:50:41.460Z,5527.00
2022-08-26T06:51:41.441Z,5361.00
2022-08-26T06:52:41.435Z,5388.00
2022-08-26T06:53:41.440Z,5391.00
2022-08-26T06:54:42.344Z,5377.00
2022-08-26T06:55:41.753Z,5369.00
2022-08-26T06:56:41.396Z,5376.00
2022-08-26T06:57:41.670Z,5362.00
2022-08-26T06:58:41.401Z,5374.00
2022-08-26T06:59:41.393Z,5375.00
2022-08-26T07:00:41.646Z,5403.00
2022-08-26T07:01:42.804Z,5402.00
2022-08-26T07:02:41.466Z,5397.00
2022-08-26T07:03:42.323Z,5400.00
2022-08-26T07:04:41.306Z,5388.00
2022-08-26T07:05:41.354Z,5384.00
2022-08-26T07:06:41.288Z,5397.00
2022-08-26T07:07:41.321Z,5381.00
2022-08-26T07:08:41.448Z,5386.00
2022-08-26T07:09:41.261Z,5389.00
2022-08-26T07:10:41.269Z,5353.00
2022-08-26T07:11:41.273Z,5360.00
2022-08-26T07:12:41.250Z,5351.00
2022-08-26T07:13:41.230Z,5356.00
2022-08-26T07:14:41.213Z,5363.00
2022-08-26T07:15:42.248Z,5378.00
2022-08-26T07:16:41.229Z,5393.00
2022-08-26T07:17:41.304Z,5400.00
2022-08-26T07:18:41.163Z,5389.00
2022-08-26T07:19:41.157Z,5372.00
2022-08-26T07:20:42.284Z,5363.00
2022-08-26T07:21:41.134Z,5340.00
2022-08-26T07:22:41.162Z,5383.00
2022-08-26T07:23:41.129Z,5407.00
2022-08-26T07:24:41.114Z,5415.00
2022-08-26T07:25:41.129Z,5424.00
2022-08-26T07:26:43.021Z,5453.00
2022-08-26T07:27:41.141Z,5469.00
2022-08-26T07:28:41.126Z,5471.00
2022-08-26T07:29:41.075Z,5469.00
2022-08-26T07:30:41.165Z,5494.00
2022-08-26T07:31:42.471Z,5525.00
2022-08-26T07:32:41.034Z,5523.00
2022-08-26T07:33:41.066Z,5531.00
2022-08-26T07:34:41.854Z,5528.00
2022-08-26T07:35:40.991Z,5542.00
2022-08-26T07:36:40.997Z,5589.00
2022-08-26T07:37:40.978Z,5597.00
2022-08-26T07:38:41.076Z,5615.00
2022-08-26T07:39:41.017Z,5642.00
2022-08-26T07:40:40.941Z,5675.00
2022-08-26T07:41:40.957Z,5698.00
2022-08-26T07:42:40.921Z,5763.00
2022-08-26T07:43:40.929Z,5744.00
2022-08-26T07:44:40.923Z,5756.00
2022-08-26T07:45:40.921Z,5752.00
2022-08-26T07:46:40.887Z,5787.00
2022-08-26T07:47:40.871Z,5806.00
2022-08-26T07:48:40.878Z,5819.00
2022-08-26T07:49:41.895Z,5898.00
2022-08-26T07:50:49.375Z,6028.00
2022-08-26T07:51:41.850Z,6137.00
2022-08-26T07:52:40.814Z,6209.00
2022-08-26T07:53:40.825Z,6283.00
2022-08-26T07:54:40.803Z,6324.00
2022-08-26T07:55:40.804Z,6336.00
2022-08-26T07:56:40.776Z,6438.00
2022-08-26T07:57:40.766Z,6514.00
2022-08-26T07:58:40.777Z,6544.00
2022-08-26T07:59:40.765Z,6609.00
2022-08-26T08:00:40.740Z,6863.00
2022-08-26T08:01:40.809Z,6792.00
2022-08-26T08:02:41.890Z,6968.00
2022-08-26T08:03:40.742Z,6245.00
2022-08-26T08:04:40.734Z,6746.00
2022-08-26T08:05:41.094Z,6874.00
2022-08-26T08:06:40.690Z,6924.00
2022-08-26T08:07:44.993Z,6910.00
2022-08-26T08:08:40.690Z,7360.00
2022-08-26T08:09:40.854Z,7294.00
2022-08-26T08:10:40.656Z,6666.00
2022-08-26T08:11:40.662Z,6125.00
2022-08-26T08:12:40.643Z,6987.00
2022-08-26T08:13:40.642Z,6040.00
2022-08-26T08:14:40.592Z,6669.00
2022-08-26T08:15:40.587Z,6119.00
2022-08-26T08:16:45.928Z,5461.00
2022-08-26T08:17:41.614Z,6425.00
2022-08-26T08:18:40.589Z,7031.00
2022-08-26T08:19:40.588Z,6011.00
2022-08-26T08:20:42.302Z,6102.00
2022-08-26T08:21:40.634Z,7611.00
2022-08-26T08:22:40.519Z,6406.00
2022-08-26T08:23:41.020Z,6223.00
2022-08-26T08:24:40.525Z,6809.00
2022-08-26T08:25:40.478Z,5906.00
2022-08-26T08:26:40.537Z,7647.00
2022-08-26T08:27:40.468Z,6766.00
2022-08-26T08:28:40.479Z,6903.00
2022-08-26T08:29:40.447Z,6485.00
2022-08-26T08:30:40.585Z,6616.00
2022-08-26T08:31:57.974Z,6902.00
2022-08-26T08:32:41.481Z,7279.00
2022-08-26T08:33:40.422Z,7431.00
2022-08-26T08:35:40.433Z,8627.00
2022-08-26T08:36:40.386Z,7422.00
2022-08-26T08:37:40.387Z,7974.00
2022-08-26T08:38:40.389Z,7362.00
2022-08-26T08:39:40.379Z,7574.00
2022-08-26T08:40:40.379Z,8077.00
2022-08-26T08:41:40.333Z,8132.00
2022-08-26T08:42:40.403Z,6620.00
2022-08-26T08:43:40.312Z,7603.00
2022-08-26T08:44:40.335Z,8001.00
2022-08-26T08:45:40.418Z,6677.00
2022-08-26T08:46:40.301Z,6870.00
2022-08-26T08:47:40.275Z,6592.00
2022-08-26T08:48:40.300Z,7685.00
2022-08-26T08:49:40.278Z,8068.00
2022-08-26T08:50:40.265Z,5148.00
2022-08-26T08:51:40.248Z,9113.00
2022-08-26T08:52:40.234Z,4796.00
2022-08-26T08:53:40.518Z,7228.00
2022-08-26T08:54:40.205Z,8815.00
2022-08-26T08:55:40.200Z,7031.00
2022-08-26T08:56:40.191Z,9340.00
2022-08-26T08:57:40.269Z,6711.00
2022-08-26T08:58:40.171Z,6183.00
2022-08-26T08:59:40.142Z,6431.00
2022-08-26T09:00:40.144Z,4619.00
2022-08-26T09:01:40.215Z,8632.00
2022-08-26T09:02:40.180Z,5917.00
2022-08-26T09:03:40.158Z,3905.00
2022-08-26T09:04:40.148Z,9547.00
2022-08-26T09:05:40.094Z,6892.00
2022-08-26T09:06:40.999Z,6303.00
2022-08-26T09:07:40.098Z,5600.00
2022-08-26T09:08:40.063Z,7251.00
2022-08-26T09:09:40.121Z,9004.00
2022-08-26T09:10:40.070Z,6477.00
2022-08-26T09:11:40.044Z,4940.00
2022-08-26T09:12:40.035Z,5913.00
2022-08-26T09:13:40.014Z,10825.00
2022-08-26T09:14:40.069Z,7051.00
2022-08-26T09:15:39.973Z,7951.00
2022-08-26T09:16:40.096Z,6870.00
2022-08-26T09:17:39.974Z,5245.00
2022-08-26T09:18:40.003Z,11136.00
2022-08-26T09:19:39.944Z,7537.00
2022-08-26T09:20:39.980Z,8127.00
2022-08-26T09:21:39.940Z,6953.00
2022-08-26T09:22:39.945Z,7126.00
2022-08-26T09:23:41.775Z,10469.00
2022-08-26T09:24:41.871Z,7283.00
2022-08-26T09:25:40.888Z,6616.00
2022-08-26T09:26:40.051Z,8225.00
2022-08-26T09:27:39.862Z,7330.00
2022-08-26T09:28:39.871Z,8172.00
2022-08-26T09:29:39.869Z,7557.00
2022-08-26T09:30:39.889Z,7265.00
2022-08-26T09:31:39.883Z,8398.00
2022-08-26T09:32:39.852Z,7769.00
2022-08-26T09:33:39.846Z,8429.00
2022-08-26T09:34:39.807Z,7918.00
2022-08-26T09:35:39.783Z,6758.00
2022-08-26T09:36:41.431Z,9712.00
2022-08-26T09:37:39.825Z,7217.00
2022-08-26T09:38:39.929Z,8327.00
2022-08-26T09:39:39.738Z,12724.00
2022-08-26T09:40:39.730Z,8609.00
2022-08-26T09:41:39.722Z,8278.00
2022-08-26T09:42:39.739Z,7713.00
2022-08-26T09:43:39.706Z,8378.00
2022-08-26T09:44:39.703Z,8496.00
2022-08-26T09:45:39.775Z,8809.00
2022-08-26T09:47:39.659Z,10519.00
2022-08-26T09:48:40.995Z,13421.00
2022-08-26T09:49:39.678Z,8717.00
2022-08-26T09:50:39.720Z,8434.00
2022-08-26T09:51:39.643Z,8941.00
2022-08-26T09:52:40.472Z,9740.00
2022-08-26T09:53:39.667Z,8698.00
2022-08-26T09:54:39.604Z,8102.00
2022-08-26T09:55:40.287Z,10279.00
2022-08-26T09:56:39.603Z,8649.00
2022-08-26T09:57:39.565Z,10299.00
2022-08-26T09:58:39.574Z,7853.00
2022-08-26T09:59:39.542Z,7275.00
2022-08-26T10:00:39.551Z,8126.00
2022-08-26T10:01:39.588Z,7860.00
2022-08-26T10:02:39.516Z,8160.00
2022-08-26T10:03:39.525Z,8521.00
2022-08-26T10:04:39.585Z,7365.00
2022-08-26T10:05:39.556Z,10278.00
2022-08-26T10:06:39.479Z,8116.00
2022-08-26T10:07:39.497Z,7913.00
2022-08-26T10:08:39.476Z,7762.00
2022-08-26T10:09:39.470Z,7180.00
2022-08-26T10:10:39.453Z,8241.00
2022-08-26T10:11:39.425Z,7358.00
2022-08-26T10:12:39.420Z,10461.00
2022-08-26T10:13:39.411Z,5768.00
2022-08-26T10:14:39.445Z,9477.00
2022-08-26T10:15:39.387Z,6954.00
2022-08-26T10:16:39.411Z,11584.00
2022-08-26T10:17:39.365Z,8756.00
2022-08-26T10:18:39.350Z,7033.00
2022-08-26T10:19:41.697Z,7564.00
2022-08-26T10:20:40.340Z,6403.00
2022-08-26T10:21:39.332Z,7184.00
2022-08-26T10:22:39.313Z,9287.00
2022-08-26T10:24:39.313Z,10298.00
2022-08-26T10:25:39.336Z,10065.00
2022-08-26T10:26:39.280Z,8788.00
2022-08-26T10:27:48.370Z,5507.00
2022-08-26T10:28:40.259Z,8060.00
2022-08-26T10:29:39.272Z,8887.00
2022-08-26T10:30:39.228Z,9126.00
2022-08-26T10:31:40.553Z,9125.00
2022-08-26T10:32:41.511Z,9225.00
2022-08-26T10:33:39.223Z,9250.00
2022-08-26T10:34:39.219Z,9144.00
2022-08-26T10:35:39.179Z,9256.00
2022-08-26T10:36:52.298Z,9393.00
2022-08-26T10:37:40.161Z,9408.00
2022-08-26T10:38:39.149Z,9397.00
2022-08-26T10:39:39.181Z,9350.00
2022-08-26T10:40:39.168Z,9355.00
2022-08-26T10:41:39.143Z,9430.00
2022-08-26T10:42:39.131Z,9279.00
2022-08-26T10:43:40.925Z,10641.00
2022-08-26T10:44:39.113Z,8640.00
2022-08-26T10:45:39.133Z,8727.00
2022-08-26T10:46:39.088Z,9877.00
2022-08-26T10:47:39.132Z,10214.00
2022-08-26T10:48:39.065Z,10405.00
2022-08-26T10:49:39.064Z,10854.00
2022-08-26T10:50:39.755Z,10503.00
2022-08-26T10:51:39.038Z,9722.00
2022-08-26T10:52:39.020Z,11473.00
2022-08-26T10:53:39.011Z,10327.00
2022-08-26T10:54:39.512Z,11297.00
2022-08-26T10:55:38.993Z,13017.00
2022-08-26T10:56:38.980Z,12294.00
2022-08-26T10:57:38.985Z,8306.00
2022-08-26T10:58:38.967Z,7997.00
2022-08-26T10:59:38.941Z,7566.00
2022-08-26T11:00:38.968Z,9726.00
2022-08-26T11:01:40.654Z,9993.00
2022-08-26T11:02:38.925Z,11088.00
2022-08-26T11:03:39.081Z,8286.00
2022-08-26T11:04:38.985Z,7291.00
2022-08-26T11:05:38.911Z,5914.00
2022-08-26T11:06:38.876Z,5574.00
2022-08-26T11:07:38.884Z,5353.00
2022-08-26T11:08:38.924Z,5070.00
2022-08-26T11:09:38.852Z,4761.00
2022-08-26T11:10:38.898Z,4601.00
2022-08-26T11:11:40.016Z,4517.00
2022-08-26T11:12:38.828Z,4322.00
2022-08-26T11:13:41.605Z,4134.00
2022-08-26T11:14:53.485Z,4044.00
2022-08-26T11:15:39.846Z,3942.00
2022-08-26T11:16:42.965Z,3852.00
2022-08-26T11:17:39.797Z,3797.00
2022-08-26T11:18:38.754Z,3801.00
2022-08-26T11:19:58.889Z,3814.00
2022-08-26T11:20:42.020Z,3871.00
2022-08-26T11:21:38.747Z,3920.00
2022-08-26T11:22:47.616Z,3909.00
2022-08-26T11:23:40.351Z,3837.00
2022-08-26T11:24:38.731Z,3855.00
2022-08-26T11:25:38.697Z,3936.00
2022-08-26T11:26:55.707Z,4026.00
2022-08-26T11:27:39.698Z,4090.00
2022-08-26T11:28:38.652Z,4195.00
2022-08-26T11:29:38.707Z,4279.00
2022-08-26T11:30:38.637Z,4369.00
2022-08-26T11:31:38.853Z,4453.00
2022-08-26T11:32:38.617Z,4534.00
2022-08-26T11:33:38.623Z,4657.00
2022-08-26T11:34:39.361Z,4802.00
2022-08-26T11:35:38.614Z,4992.00
2022-08-26T11:36:38.588Z,5121.00
2022-08-26T11:37:40.606Z,5183.00
2022-08-26T11:38:38.655Z,5169.00
2022-08-26T11:39:39.363Z,5191.00
2022-08-26T11:40:39.235Z,5197.00
2022-08-26T11:41:38.544Z,5182.00
2022-08-26T11:42:38.648Z,5204.00
2022-08-26T11:43:38.503Z,5234.00
2022-08-26T11:44:38.514Z,5165.00
2022-08-26T11:45:38.579Z,5043.00
2022-08-26T11:46:38.504Z,5047.00
2022-08-26T11:47:38.526Z,5024.00
2022-08-26T11:48:38.469Z,4976.00
2022-08-26T11:49:38.510Z,4931.00
2022-08-26T11:50:38.489Z,4876.00
2022-08-26T11:51:40.544Z,4800.00
2022-08-26T11:52:38.429Z,4666.00
2022-08-26T11:53:38.407Z,4457.00
2022-08-26T11:54:38.404Z,4181.00
2022-08-26T11:55:38.383Z,4008.00
2022-08-26T11:56:38.404Z,3868.00
2022-08-26T11:57:38.443Z,3694.00
2022-08-26T11:58:38.358Z,3635.00
2022-08-26T11:59:38.349Z,3553.00
2022-08-26T12:00:38.332Z,3404.00
2022-08-26T12:01:39.394Z,3213.00
2022-08-26T12:02:38.350Z,2812.00
2022-08-26T12:03:38.391Z,2705.00
2022-08-26T12:04:38.418Z,2623.00
2022-08-26T12:05:38.319Z,2428.00
2022-08-26T12:06:44.992Z,2214.00
2022-08-26T12:07:39.927Z,1834.00
2022-08-26T12:08:38.286Z,1459.00
2022-08-26T12:09:38.249Z,1229.00
2022-08-26T12:10:38.285Z,1133.00
2022-08-26T12:11:38.281Z,1073.00
2022-08-26T12:12:38.225Z,1095.00
2022-08-26T12:13:38.218Z,1215.00
2022-08-26T12:14:38.201Z,1375.00
2022-08-26T12:15:38.206Z,1408.00
2022-08-26T12:16:38.209Z,1417.00
2022-08-26T12:17:38.157Z,1464.00
2022-08-26T12:18:38.153Z,1499.00
2022-08-26T12:19:38.140Z,1490.00
2022-08-26T12:20:38.137Z,1481.00
2022-08-26T12:21:38.165Z,1479.00
2022-08-26T12:22:38.139Z,1441.00
2022-08-26T12:23:38.128Z,1366.00
2022-08-26T12:24:38.087Z,1294.00
2022-08-26T12:25:38.097Z,1231.00
2022-08-26T12:26:38.103Z,1074.00
2022-08-26T12:27:38.073Z,948.00
2022-08-26T12:28:38.073Z,908.00
2022-08-26T12:29:38.042Z,897.00
2022-08-26T12:30:38.033Z,905.00
2022-08-26T12:31:38.152Z,924.00
2022-08-26T12:32:38.047Z,951.00